createdAt,value
2019-03-16T00:00:01.144Z,5.50
2019-03-16T00:01:07.123Z,5.50
2019-03-16T00:02:14.042Z,5.50
2019-03-16T00:03:26.312Z,5.50
2019-03-16T00:04:25.664Z,5.50
2019-03-16T00:05:31.544Z,5.60
2019-03-16T00:06:35.800Z,5.50
2019-03-16T00:07:43.078Z,5.50
2019-03-16T00:08:47.416Z,5.60
2019-03-16T00:09:51.692Z,5.60
2019-03-16T00:11:01.444Z,5.60
2019-03-16T00:12:05.270Z,5.60
2019-03-16T00:13:15.840Z,5.60
2019-03-16T00:14:18.016Z,5.70
2019-03-16T00:15:22.145Z,5.60
2019-03-16T00:16:26.354Z,5.70
2019-03-16T00:17:31.165Z,5.60
2019-03-16T00:18:38.047Z,5.60
2019-03-16T00:19:43.869Z,5.60
2019-03-16T00:20:49.052Z,5.60
2019-03-16T00:21:58.477Z,5.60
2019-03-16T00:23:02.762Z,5.60
2019-03-16T00:24:06.978Z,5.60
2019-03-16T00:25:13.027Z,5.60
2019-03-16T00:26:18.775Z,5.60
2019-03-16T00:27:24.413Z,5.60
2019-03-16T00:28:28.644Z,5.60
2019-03-16T00:29:34.519Z,5.50
2019-03-16T00:30:43.175Z,5.50
2019-03-16T00:31:50.448Z,5.50
2019-03-16T00:32:54.761Z,5.50
2019-03-16T00:33:59.125Z,5.50
2019-03-16T00:35:06.454Z,5.40
2019-03-16T00:36:13.911Z,5.40
2019-03-16T00:37:18.215Z,5.40
2019-03-16T00:38:23.617Z,5.30
2019-03-16T00:39:32.076Z,5.30
2019-03-16T00:40:35.684Z,5.30
2019-03-16T00:41:39.933Z,5.30
2019-03-16T00:42:44.146Z,5.30
2019-03-16T00:43:48.193Z,5.30
2019-03-16T00:44:52.348Z,5.30
2019-03-16T00:45:56.465Z,5.20
2019-03-16T00:47:00.569Z,5.20
2019-03-16T00:48:06.324Z,5.20
2019-03-16T00:49:10.390Z,5.10
2019-03-16T00:50:15.251Z,5.10
2019-03-16T00:51:19.469Z,5.10
2019-03-16T00:52:29.054Z,5.10
2019-03-16T00:53:32.560Z,5.10
2019-03-16T00:54:37.665Z,5.10
2019-03-16T00:55:42.314Z,5.10
2019-03-16T00:56:47.479Z,5.10
2019-03-16T00:57:51.677Z,5.10
2019-03-16T00:58:56.033Z,5.10
2019-03-16T01:00:00.442Z,5.10
2019-03-16T01:01:04.645Z,5.20
2019-03-16T01:02:10.630Z,5.10
2019-03-16T01:03:16.115Z,5.10
2019-03-16T01:04:23.605Z,5.10
2019-03-16T01:05:29.289Z,5.10
2019-03-16T01:06:35.169Z,5.10
2019-03-16T01:07:41.035Z,5.10
2019-03-16T01:08:45.140Z,5.10
2019-03-16T01:09:49.337Z,5.10
2019-03-16T01:10:53.600Z,5.10
2019-03-16T01:11:58.927Z,5.10
2019-03-16T01:13:04.036Z,5.00
2019-03-16T01:14:15.517Z,5.00
2019-03-16T01:15:20.692Z,5.00
2019-03-16T01:16:24.976Z,5.00
2019-03-16T01:17:34.837Z,5.00
2019-03-16T01:18:39.204Z,5.00
2019-03-16T01:19:46.557Z,5.00
2019-03-16T01:20:55.823Z,5.00
2019-03-16T01:22:01.299Z,5.00
2019-03-16T01:23:05.428Z,5.00
2019-03-16T01:24:11.263Z,5.00
2019-03-16T01:25:15.532Z,5.00
2019-03-16T01:26:19.849Z,5.00
2019-03-16T01:27:23.954Z,5.00
2019-03-16T01:28:32.685Z,5.00
2019-03-16T01:29:37.306Z,5.00
2019-03-16T01:30:48.045Z,5.10
2019-03-16T01:32:07.120Z,5.10
2019-03-16T01:33:05.221Z,5.00
2019-03-16T01:34:15.163Z,5.10
2019-03-16T01:35:18.527Z,5.10
2019-03-16T01:36:26.131Z,5.10
2019-03-16T01:37:33.265Z,5.10
2019-03-16T01:38:39.550Z,5.10
2019-03-16T01:39:43.827Z,5.10
2019-03-16T01:40:49.161Z,5.10
2019-03-16T01:41:53.427Z,5.10
2019-03-16T01:43:03.665Z,5.10
2019-03-16T01:44:06.899Z,5.10
2019-03-16T01:45:11.657Z,5.10
2019-03-16T01:46:17.658Z,5.10
2019-03-16T01:47:25.392Z,5.20
2019-03-16T01:48:29.555Z,5.20
2019-03-16T01:49:35.377Z,5.20
2019-03-16T01:50:42.367Z,5.20
2019-03-16T01:51:49.764Z,5.20
2019-03-16T01:52:53.953Z,5.20
2019-03-16T01:54:02.557Z,5.20
2019-03-16T01:55:08.509Z,5.20
2019-03-16T01:56:15.351Z,5.30
2019-03-16T01:57:21.216Z,5.30
2019-03-16T01:58:25.427Z,5.30
2019-03-16T01:59:29.731Z,5.30
2019-03-16T02:00:34.553Z,5.30
2019-03-16T02:01:38.845Z,5.30
2019-03-16T02:02:54.445Z,5.40
2019-03-16T02:03:49.072Z,5.40
2019-03-16T02:05:03.939Z,5.40
2019-03-16T02:06:03.649Z,5.40
2019-03-16T02:07:09.407Z,5.40
2019-03-16T02:08:15.261Z,5.40
2019-03-16T02:09:21.762Z,5.40
2019-03-16T02:10:28.886Z,5.40
2019-03-16T02:11:34.612Z,5.40
2019-03-16T02:12:38.883Z,5.40
2019-03-16T02:13:44.773Z,5.40
2019-03-16T02:14:48.985Z,5.40
2019-03-16T02:15:53.076Z,5.50
2019-03-16T02:16:57.321Z,5.40
2019-03-16T02:18:03.838Z,5.50
2019-03-16T02:19:07.325Z,5.50
2019-03-16T02:20:13.171Z,5.50
2019-03-16T02:21:18.665Z,5.50
2019-03-16T02:22:24.376Z,5.50
2019-03-16T02:23:28.465Z,5.50
2019-03-16T02:24:32.553Z,5.50
2019-03-16T02:25:36.854Z,5.50
2019-03-16T02:26:44.857Z,5.50
2019-03-16T02:27:51.252Z,5.50
2019-03-16T02:28:57.017Z,5.50
2019-03-16T02:30:01.252Z,5.60
2019-03-16T02:31:08.295Z,5.60
2019-03-16T02:32:11.739Z,5.60
2019-03-16T02:33:16.038Z,5.60
2019-03-16T02:34:20.256Z,5.60
2019-03-16T02:35:24.364Z,5.60
2019-03-16T02:36:28.540Z,5.60
2019-03-16T02:37:32.769Z,5.60
2019-03-16T02:38:40.135Z,5.70
2019-03-16T02:39:42.799Z,5.70
2019-03-16T02:40:48.234Z,5.70
2019-03-16T02:41:52.396Z,5.60
2019-03-16T02:42:59.339Z,5.70
2019-03-16T02:44:06.094Z,5.70
2019-03-16T02:45:10.418Z,5.70
2019-03-16T02:46:16.236Z,5.80
2019-03-16T02:47:22.030Z,5.80
2019-03-16T02:48:27.324Z,5.80
2019-03-16T02:49:31.500Z,5.90
2019-03-16T02:50:35.630Z,5.90
2019-03-16T02:51:39.793Z,5.90
2019-03-16T02:52:43.958Z,5.90
2019-03-16T02:53:49.718Z,5.90
2019-03-16T02:54:53.916Z,6.00
2019-03-16T02:55:59.840Z,5.90
2019-03-16T02:57:04.120Z,6.00
2019-03-16T02:58:10.483Z,5.90
2019-03-16T02:59:14.712Z,5.90
2019-03-16T03:00:19.087Z,5.90
2019-03-16T03:01:24.782Z,5.90
2019-03-16T03:02:32.191Z,5.90
2019-03-16T03:03:38.148Z,5.90
2019-03-16T03:04:45.642Z,5.90
2019-03-16T03:05:49.219Z,5.90
2019-03-16T03:06:53.375Z,5.90
2019-03-16T03:08:00.220Z,5.90
2019-03-16T03:09:07.295Z,6.00
2019-03-16T03:10:13.690Z,6.00
2019-03-16T03:11:17.878Z,6.00
2019-03-16T03:12:24.743Z,6.00
2019-03-16T03:13:31.220Z,6.10
2019-03-16T03:14:35.555Z,6.10
2019-03-16T03:15:39.673Z,6.10
2019-03-16T03:16:43.948Z,6.10
2019-03-16T03:17:49.267Z,6.20
2019-03-16T03:18:53.485Z,6.20
2019-03-16T03:19:57.578Z,6.20
2019-03-16T03:21:01.827Z,6.20
2019-03-16T03:22:06.093Z,6.20
2019-03-16T03:23:11.879Z,6.20
2019-03-16T03:24:16.142Z,6.20
2019-03-16T03:25:20.506Z,6.20
2019-03-16T03:26:26.629Z,6.20
2019-03-16T03:27:34.931Z,6.20
2019-03-16T03:28:46.525Z,6.20
2019-03-16T03:29:50.713Z,6.20
2019-03-16T03:30:55.103Z,6.30
2019-03-16T03:32:08.770Z,6.20
2019-03-16T03:33:19.828Z,6.30
2019-03-16T03:34:20.523Z,6.20
2019-03-16T03:35:29.204Z,6.30
2019-03-16T03:36:37.319Z,6.20
2019-03-16T03:37:38.445Z,6.30
2019-03-16T03:38:45.825Z,6.30
2019-03-16T03:39:51.587Z,6.30
2019-03-16T03:40:55.927Z,6.30
2019-03-16T03:42:04.956Z,6.30
2019-03-16T03:43:09.317Z,6.30
2019-03-16T03:44:14.552Z,6.30
2019-03-16T03:45:21.949Z,6.30
2019-03-16T03:46:32.205Z,6.30
2019-03-16T03:47:38.651Z,6.40
2019-03-16T03:48:44.565Z,6.40
2019-03-16T03:49:50.099Z,6.30
2019-03-16T03:50:54.399Z,6.40
2019-03-16T03:52:00.390Z,6.40
2019-03-16T03:53:06.217Z,6.30
2019-03-16T03:54:10.416Z,6.40
2019-03-16T03:55:15.306Z,6.40
2019-03-16T03:56:23.984Z,6.40
2019-03-16T03:57:35.350Z,6.30
2019-03-16T03:58:42.031Z,6.40
2019-03-16T04:00:05.380Z,6.40
2019-03-16T04:00:59.026Z,6.30
2019-03-16T04:02:04.573Z,6.40
2019-03-16T04:03:10.356Z,6.30
2019-03-16T04:04:16.068Z,6.40
2019-03-16T04:05:20.743Z,6.40
2019-03-16T04:06:27.960Z,6.40
2019-03-16T04:07:32.287Z,6.40
2019-03-16T04:08:36.647Z,6.40
2019-03-16T04:09:42.645Z,6.40
2019-03-16T04:10:49.262Z,6.40
2019-03-16T04:11:55.898Z,6.40
2019-03-16T04:13:01.182Z,6.40
2019-03-16T04:14:05.536Z,6.50
2019-03-16T04:15:11.169Z,6.50
2019-03-16T04:16:15.488Z,6.50
2019-03-16T04:17:37.968Z,6.50
2019-03-16T04:18:38.420Z,6.50
2019-03-16T04:19:45.637Z,6.50
2019-03-16T04:20:55.151Z,6.50
2019-03-16T04:22:02.343Z,6.50
2019-03-16T04:23:11.223Z,6.50
2019-03-16T04:24:15.530Z,6.50
2019-03-16T04:25:23.639Z,6.50
2019-03-16T04:26:32.125Z,6.50
2019-03-16T04:27:38.022Z,6.50
2019-03-16T04:28:54.653Z,6.50
2019-03-16T04:30:00.879Z,6.50
2019-03-16T04:31:06.586Z,6.50
2019-03-16T04:32:18.098Z,6.50
2019-03-16T04:33:22.472Z,6.50
2019-03-16T04:34:34.196Z,6.50
2019-03-16T04:35:40.057Z,6.60
2019-03-16T04:36:49.494Z,6.50
2019-03-16T04:37:50.281Z,6.50
2019-03-16T04:39:05.824Z,6.50
2019-03-16T04:40:03.577Z,6.50
2019-03-16T04:41:14.360Z,6.50
2019-03-16T04:42:15.348Z,6.50
2019-03-16T04:43:19.742Z,6.60
2019-03-16T04:44:24.122Z,6.60
2019-03-16T04:45:28.534Z,6.50
2019-03-16T04:46:34.461Z,6.60
2019-03-16T04:47:42.659Z,6.50
2019-03-16T04:49:01.118Z,6.50
2019-03-16T04:49:54.800Z,6.50
2019-03-16T04:51:02.874Z,6.50
2019-03-16T04:52:08.561Z,6.50
2019-03-16T04:53:14.336Z,6.50
2019-03-16T04:54:20.045Z,6.50
2019-03-16T04:55:29.572Z,6.50
2019-03-16T04:56:38.467Z,6.50
2019-03-16T04:57:42.816Z,6.50
2019-03-16T04:58:47.190Z,6.50
2019-03-16T04:59:51.494Z,6.50
2019-03-16T05:00:58.811Z,6.50
2019-03-16T05:02:03.776Z,6.50
2019-03-16T05:03:09.962Z,6.50
2019-03-16T05:04:17.942Z,6.50
2019-03-16T05:05:23.990Z,6.50
2019-03-16T05:06:31.405Z,6.50
2019-03-16T05:07:41.723Z,6.40
2019-03-16T05:08:50.120Z,6.50
2019-03-16T05:09:55.203Z,6.50
2019-03-16T05:11:01.358Z,6.50
2019-03-16T05:12:08.292Z,6.40
2019-03-16T05:13:14.293Z,6.40
2019-03-16T05:14:36.427Z,6.50
2019-03-16T05:15:41.372Z,6.50
2019-03-16T05:16:45.758Z,6.50
2019-03-16T05:17:53.198Z,6.40
2019-03-16T05:18:59.200Z,6.40
2019-03-16T05:20:06.038Z,6.40
2019-03-16T05:21:11.384Z,6.40
2019-03-16T05:22:18.146Z,6.40
2019-03-16T05:23:25.632Z,6.40
2019-03-16T05:24:30.542Z,6.40
2019-03-16T05:25:36.588Z,6.40
2019-03-16T05:26:43.150Z,6.40
2019-03-16T05:27:53.510Z,6.40
2019-03-16T05:28:59.070Z,6.40
2019-03-16T05:30:27.093Z,6.40
2019-03-16T05:31:21.923Z,6.40
2019-03-16T05:32:26.286Z,6.30
2019-03-16T05:33:37.467Z,6.30
2019-03-16T05:34:39.640Z,6.30
2019-03-16T05:35:47.838Z,6.30
2019-03-16T05:36:57.475Z,6.40
2019-03-16T05:38:04.728Z,6.40
2019-03-16T05:39:13.746Z,6.40
2019-03-16T05:40:18.053Z,6.40
2019-03-16T05:41:25.180Z,6.40
2019-03-16T05:42:30.522Z,6.40
2019-03-16T05:43:36.520Z,6.30
2019-03-16T05:44:40.626Z,6.40
2019-03-16T05:45:47.798Z,6.40
2019-03-16T05:46:52.229Z,6.40
2019-03-16T05:47:59.589Z,6.30
2019-03-16T05:49:03.694Z,6.40
2019-03-16T05:50:12.393Z,6.40
2019-03-16T05:51:28.512Z,6.40
2019-03-16T05:52:40.578Z,6.40
2019-03-16T05:53:41.813Z,6.40
2019-03-16T05:55:10.131Z,6.40
2019-03-16T05:56:55.517Z,6.40
2019-03-16T05:57:41.830Z,6.40
2019-03-16T05:58:49.428Z,6.40
2019-03-16T06:00:04.387Z,6.40
2019-03-16T06:02:10.035Z,6.40
2019-03-16T06:02:28.688Z,6.40
2019-03-16T06:05:10.392Z,6.40
2019-03-16T06:07:45.331Z,6.40
2019-03-16T06:08:52.866Z,6.30
2019-03-16T06:09:57.486Z,6.30
2019-03-16T06:11:10.299Z,6.30
2019-03-16T06:12:26.078Z,6.30
2019-03-16T06:13:31.860Z,6.30
2019-03-16T06:15:09.141Z,6.30
2019-03-16T06:15:48.979Z,6.30
2019-03-16T06:16:58.675Z,6.30
2019-03-16T06:18:03.081Z,6.30
2019-03-16T06:19:10.461Z,6.30
2019-03-16T06:20:16.406Z,6.30
2019-03-16T06:21:20.874Z,6.30
2019-03-16T06:22:30.545Z,6.30
2019-03-16T06:23:38.020Z,6.30
2019-03-16T06:24:43.861Z,6.30
2019-03-16T06:26:03.144Z,6.30
2019-03-16T06:26:59.866Z,6.30
2019-03-16T06:28:18.462Z,6.30
2019-03-16T06:29:26.872Z,6.30
2019-03-16T06:30:45.560Z,6.30
2019-03-16T06:31:48.211Z,6.20
2019-03-16T06:32:58.773Z,6.30
2019-03-16T06:34:08.947Z,6.30
2019-03-16T06:35:06.233Z,6.30
2019-03-16T06:36:31.877Z,6.30
2019-03-16T06:37:35.072Z,6.30
2019-03-16T06:38:47.551Z,6.30
2019-03-16T06:39:46.861Z,6.30
2019-03-16T06:40:53.984Z,6.40
2019-03-16T06:42:01.288Z,6.40
2019-03-16T06:43:31.704Z,6.40
2019-03-16T06:44:26.634Z,6.40
2019-03-16T06:45:27.749Z,6.30
2019-03-16T06:46:30.501Z,6.30
2019-03-16T06:47:43.741Z,6.30
2019-03-16T06:49:29.709Z,6.30
2019-03-16T06:51:46.711Z,6.30
2019-03-16T06:52:51.432Z,6.20
2019-03-16T06:54:03.157Z,6.20
2019-03-16T06:55:17.254Z,6.10
2019-03-16T06:56:27.291Z,6.10
2019-03-16T06:57:34.354Z,6.10
2019-03-16T06:58:58.461Z,6.10
2019-03-16T07:00:17.493Z,6.00
2019-03-16T07:01:33.061Z,6.00
2019-03-16T07:02:33.726Z,6.00
2019-03-16T07:03:47.986Z,6.00
2019-03-16T07:05:00.464Z,6.00
2019-03-16T07:06:59.052Z,5.90
2019-03-16T07:07:19.274Z,5.90
2019-03-16T07:08:48.373Z,5.90
2019-03-16T07:09:31.179Z,5.80
2019-03-16T07:10:35.493Z,5.80
2019-03-16T07:11:46.195Z,5.80
2019-03-16T07:12:47.888Z,5.80
2019-03-16T07:13:53.158Z,5.80
2019-03-16T07:14:57.468Z,5.80
2019-03-16T07:16:01.602Z,5.80
2019-03-16T07:17:07.360Z,5.80
2019-03-16T07:18:11.615Z,5.80
2019-03-16T07:19:17.304Z,5.90
2019-03-16T07:20:21.666Z,5.90
2019-03-16T07:21:26.037Z,5.90
2019-03-16T07:22:30.247Z,5.90
2019-03-16T07:23:34.878Z,6.00
2019-03-16T07:24:39.286Z,6.00
2019-03-16T07:25:45.009Z,6.00
2019-03-16T07:26:50.361Z,6.10
2019-03-16T07:27:55.693Z,6.10
2019-03-16T07:29:00.066Z,6.10
2019-03-16T07:30:12.171Z,6.20
2019-03-16T07:31:16.477Z,6.20
2019-03-16T07:32:20.795Z,6.30
2019-03-16T07:33:25.033Z,6.30
2019-03-16T07:34:30.980Z,6.30
2019-03-16T07:35:40.189Z,6.30
2019-03-16T07:36:42.853Z,6.40
2019-03-16T07:37:47.141Z,6.40
2019-03-16T07:38:52.623Z,6.50
2019-03-16T07:39:58.998Z,6.50
2019-03-16T07:41:05.939Z,6.50
2019-03-16T07:42:12.833Z,6.60
2019-03-16T07:43:19.696Z,6.60
2019-03-16T07:44:28.284Z,6.60
2019-03-16T07:45:36.226Z,6.70
2019-03-16T07:46:44.248Z,6.70
2019-03-16T07:47:55.611Z,6.70
2019-03-16T07:49:11.383Z,6.80
2019-03-16T07:50:20.269Z,6.80
2019-03-16T07:51:26.644Z,6.90
2019-03-16T07:52:33.536Z,6.90
2019-03-16T07:53:38.408Z,6.90
2019-03-16T07:54:45.231Z,6.90
2019-03-16T07:55:48.739Z,6.90
2019-03-16T07:56:55.986Z,6.90
2019-03-16T07:58:00.182Z,6.90
2019-03-16T07:59:04.427Z,6.90
2019-03-16T08:00:11.114Z,6.90
2019-03-16T08:01:17.596Z,6.90
2019-03-16T08:02:22.937Z,6.90
2019-03-16T08:03:31.144Z,6.90
2019-03-16T08:04:36.995Z,7.00
2019-03-16T08:05:42.940Z,7.00
2019-03-16T08:06:49.518Z,7.00
2019-03-16T08:07:55.742Z,7.00
2019-03-16T08:09:00.048Z,7.00
2019-03-16T08:10:11.189Z,7.10
2019-03-16T08:11:16.663Z,7.10
2019-03-16T08:12:22.249Z,7.00
2019-03-16T08:13:26.494Z,7.00
2019-03-16T08:14:32.587Z,7.00
2019-03-16T08:15:36.739Z,7.00
2019-03-16T08:16:44.306Z,7.10
2019-03-16T08:17:48.583Z,7.10
2019-03-16T08:18:55.723Z,7.10
2019-03-16T08:20:02.087Z,7.20
2019-03-16T08:21:06.415Z,7.20
2019-03-16T08:22:13.252Z,7.20
2019-03-16T08:23:20.015Z,7.20
2019-03-16T08:24:31.395Z,7.10
2019-03-16T08:25:38.593Z,7.20
2019-03-16T08:26:47.799Z,7.20
2019-03-16T08:27:55.265Z,7.20
2019-03-16T08:29:02.289Z,7.10
2019-03-16T08:30:15.453Z,7.10
2019-03-16T08:31:19.374Z,7.10
2019-03-16T08:32:25.412Z,7.10
2019-03-16T08:33:34.354Z,7.10
2019-03-16T08:34:41.773Z,7.10
2019-03-16T08:35:48.532Z,7.10
2019-03-16T08:36:55.642Z,7.10
2019-03-16T08:38:03.738Z,7.10
2019-03-16T08:39:13.223Z,7.10
2019-03-16T08:40:25.764Z,7.00
2019-03-16T08:41:24.618Z,7.10
2019-03-16T08:42:32.675Z,7.00
2019-03-16T08:43:42.139Z,7.00
2019-03-16T08:44:48.229Z,7.00
2019-03-16T08:46:07.286Z,7.00
2019-03-16T08:47:14.469Z,7.00
2019-03-16T08:48:22.973Z,6.90
2019-03-16T08:49:30.246Z,7.00
2019-03-16T08:50:33.663Z,7.00
2019-03-16T08:51:40.623Z,7.00
2019-03-16T08:52:44.932Z,7.00
2019-03-16T08:53:50.472Z,7.10
2019-03-16T08:54:58.907Z,7.10
2019-03-16T08:56:03.243Z,7.10
2019-03-16T08:57:14.630Z,7.00
2019-03-16T08:58:17.553Z,7.10
2019-03-16T08:59:25.715Z,7.00
2019-03-16T09:00:37.071Z,7.00
2019-03-16T09:01:46.040Z,7.00
2019-03-16T09:02:51.250Z,7.00
2019-03-16T09:04:00.679Z,7.00
2019-03-16T09:05:07.826Z,7.00
2019-03-16T09:06:17.264Z,7.00
2019-03-16T09:07:27.650Z,7.00
2019-03-16T09:08:35.137Z,7.10
2019-03-16T09:09:39.412Z,7.10
2019-03-16T09:10:43.701Z,7.10
2019-03-16T09:11:48.951Z,7.20
2019-03-16T09:12:56.845Z,7.20
2019-03-16T09:14:02.561Z,7.20
2019-03-16T09:15:14.541Z,7.30
2019-03-16T09:16:22.126Z,7.30
2019-03-16T09:17:28.391Z,7.30
2019-03-16T09:18:32.330Z,7.40
2019-03-16T09:19:36.631Z,7.40
2019-03-16T09:20:41.025Z,7.40
2019-03-16T09:21:53.321Z,7.40
2019-03-16T09:22:58.754Z,7.40
2019-03-16T09:24:03.154Z,7.40
2019-03-16T09:25:10.677Z,7.40
2019-03-16T09:26:18.074Z,7.40
2019-03-16T09:27:31.385Z,7.40
2019-03-16T09:28:36.059Z,7.40
2019-03-16T09:29:49.552Z,7.50
2019-03-16T09:30:56.524Z,7.50
2019-03-16T09:32:04.913Z,7.50
2019-03-16T09:33:11.256Z,7.60
2019-03-16T09:34:17.183Z,7.60
2019-03-16T09:35:23.183Z,7.60
2019-03-16T09:36:30.765Z,7.60
2019-03-16T09:37:34.971Z,7.60
2019-03-16T09:38:40.857Z,7.70
2019-03-16T09:39:45.077Z,7.70
2019-03-16T09:40:49.247Z,7.70
2019-03-16T09:41:58.311Z,7.70
2019-03-16T09:43:04.321Z,7.70
2019-03-16T09:44:10.260Z,7.70
2019-03-16T09:45:16.407Z,7.70
2019-03-16T09:46:29.430Z,7.80
2019-03-16T09:47:36.409Z,7.70
2019-03-16T09:48:45.414Z,7.80
2019-03-16T09:49:57.414Z,7.80
2019-03-16T09:51:01.143Z,7.80
2019-03-16T09:52:16.296Z,7.90
2019-03-16T09:53:18.266Z,7.90
2019-03-16T09:54:32.857Z,7.90
2019-03-16T09:55:38.681Z,7.90
2019-03-16T09:57:08.078Z,7.90
2019-03-16T09:57:55.010Z,8.00
2019-03-16T09:59:27.787Z,8.00
2019-03-16T10:00:18.577Z,8.00
2019-03-16T10:01:26.981Z,8.00
2019-03-16T10:02:32.311Z,8.00
2019-03-16T10:03:37.137Z,8.00
2019-03-16T10:04:44.507Z,8.00
2019-03-16T10:05:52.902Z,8.10
2019-03-16T10:07:13.236Z,8.00
2019-03-16T10:08:07.871Z,8.10
2019-03-16T10:09:20.816Z,8.10
2019-03-16T10:10:23.679Z,8.10
2019-03-16T10:11:30.301Z,8.10
2019-03-16T10:12:34.503Z,8.10
2019-03-16T10:13:47.152Z,8.10
2019-03-16T10:14:59.117Z,8.10
2019-03-16T10:15:55.417Z,8.10
2019-03-16T10:17:03.360Z,8.10
2019-03-16T10:18:07.473Z,8.10
2019-03-16T10:19:14.092Z,8.10
2019-03-16T10:20:21.270Z,8.10
2019-03-16T10:21:30.427Z,8.10
2019-03-16T10:22:43.848Z,8.00
2019-03-16T10:23:46.052Z,8.00
2019-03-16T10:25:00.735Z,8.00
2019-03-16T10:26:07.293Z,8.00
2019-03-16T10:27:13.214Z,7.90
2019-03-16T10:28:25.091Z,7.90
2019-03-16T10:29:28.090Z,7.90
2019-03-16T10:30:37.417Z,7.90
2019-03-16T10:31:42.857Z,7.90
2019-03-16T10:33:53.449Z,7.90
2019-03-16T10:34:18.529Z,7.90
2019-03-16T10:35:28.065Z,7.90
2019-03-16T10:36:32.468Z,7.90
2019-03-16T10:39:38.326Z,7.90
2019-03-16T10:40:36.349Z,7.80
2019-03-16T10:41:34.750Z,7.80
2019-03-16T10:42:41.901Z,7.80
2019-03-16T10:44:53.995Z,7.80
2019-03-16T10:46:03.647Z,7.80
2019-03-16T10:47:10.987Z,7.80
2019-03-16T10:48:20.961Z,7.80
2019-03-16T10:49:40.013Z,7.80
2019-03-16T10:50:36.235Z,7.90
2019-03-16T10:51:50.081Z,7.80
2019-03-16T10:53:03.880Z,7.90
2019-03-16T10:54:09.825Z,7.90
2019-03-16T10:55:27.980Z,7.90
2019-03-16T10:56:35.037Z,7.90
2019-03-16T10:57:41.013Z,7.90
2019-03-16T10:58:56.607Z,8.00
2019-03-16T10:59:54.831Z,8.00
2019-03-16T11:01:30.557Z,7.90
2019-03-16T11:02:47.462Z,7.90
2019-03-16T11:05:01.858Z,7.90
2019-03-16T11:06:21.981Z,7.90
2019-03-16T11:07:26.034Z,7.90
2019-03-16T11:08:25.929Z,7.90
2019-03-16T11:09:32.555Z,7.90
2019-03-16T11:10:38.919Z,7.90
2019-03-16T11:11:50.086Z,7.90
2019-03-16T11:12:58.650Z,7.90
2019-03-16T11:14:09.652Z,7.90
2019-03-16T11:15:26.429Z,7.90
2019-03-16T11:16:25.873Z,7.90
2019-03-16T11:17:35.172Z,7.90
2019-03-16T11:18:42.790Z,7.90
2019-03-16T11:19:51.364Z,7.90
2019-03-16T11:20:57.427Z,7.90
2019-03-16T11:22:05.888Z,7.90
2019-03-16T11:23:11.939Z,7.90
2019-03-16T11:25:53.501Z,7.90
2019-03-16T11:27:09.439Z,7.90
2019-03-16T11:28:20.821Z,8.00
2019-03-16T11:29:33.995Z,8.00
2019-03-16T11:30:53.602Z,8.00
2019-03-16T11:32:40.518Z,8.00
2019-03-16T11:33:24.674Z,8.10
2019-03-16T11:34:31.618Z,8.10
2019-03-16T11:35:42.512Z,8.10
2019-03-16T11:37:12.755Z,8.10
2019-03-16T11:38:11.348Z,8.10
2019-03-16T11:39:22.542Z,8.10
2019-03-16T11:40:27.672Z,8.10
2019-03-16T11:41:36.273Z,8.10
2019-03-16T11:44:20.151Z,8.10
2019-03-16T11:45:24.531Z,8.10
2019-03-16T11:51:36.790Z,8.20
2019-03-16T11:52:53.604Z,8.20
2019-03-16T11:54:13.532Z,8.20
2019-03-16T11:55:27.565Z,8.20
2019-03-16T11:56:27.577Z,8.20
2019-03-16T11:57:40.481Z,8.20
2019-03-16T11:58:49.016Z,8.20
2019-03-16T11:59:54.840Z,8.20
2019-03-16T12:01:00.938Z,8.20
2019-03-16T12:02:06.834Z,8.20
2019-03-16T12:03:12.814Z,8.20
2019-03-16T12:04:23.996Z,8.20
2019-03-16T12:05:28.459Z,8.20
2019-03-16T12:07:34.875Z,8.20
2019-03-16T12:07:59.694Z,8.20
2019-03-16T12:09:08.932Z,8.10
2019-03-16T12:10:34.891Z,8.10
2019-03-16T12:11:28.557Z,8.10
2019-03-16T12:14:06.108Z,8.20
2019-03-16T12:15:17.508Z,8.20
2019-03-16T12:16:31.044Z,8.30
2019-03-16T12:17:42.578Z,8.30
2019-03-16T12:18:48.616Z,8.30
2019-03-16T12:20:00.989Z,8.30
2019-03-16T12:21:03.632Z,8.40
2019-03-16T12:23:43.531Z,8.40
2019-03-16T12:24:50.813Z,8.50
2019-03-16T12:27:13.825Z,8.50
2019-03-16T12:28:30.900Z,8.60
2019-03-16T12:29:59.741Z,8.50
2019-03-16T12:32:49.456Z,8.60
2019-03-16T12:34:13.633Z,8.60
2019-03-16T12:35:55.134Z,8.60
2019-03-16T12:37:12.723Z,8.60
2019-03-16T12:39:03.415Z,8.60
2019-03-16T12:40:43.575Z,8.60
2019-03-16T12:40:46.630Z,8.60
2019-03-16T12:41:58.805Z,8.60
2019-03-16T12:44:31.041Z,8.60
2019-03-16T12:45:42.400Z,8.60
2019-03-16T12:46:57.165Z,8.70
2019-03-16T12:48:18.855Z,8.70
2019-03-16T12:49:30.071Z,8.70
2019-03-16T12:50:41.025Z,8.80
2019-03-16T12:51:54.744Z,8.90
2019-03-16T12:53:07.707Z,8.90
2019-03-16T12:54:14.586Z,9.00
2019-03-16T12:55:30.049Z,9.00
2019-03-16T12:56:35.158Z,9.10
2019-03-16T12:57:47.750Z,9.10
2019-03-16T12:59:10.069Z,9.10
2019-03-16T13:00:06.434Z,9.10
2019-03-16T13:01:45.292Z,9.10
2019-03-16T13:02:32.152Z,9.10
2019-03-16T13:03:45.883Z,9.10
2019-03-16T13:04:49.056Z,9.10
2019-03-16T13:05:59.362Z,9.00
2019-03-16T13:07:23.145Z,9.00
2019-03-16T13:08:17.074Z,9.00
2019-03-16T13:09:31.127Z,9.00
2019-03-16T13:10:38.482Z,9.00
2019-03-16T13:11:47.432Z,9.00
2019-03-16T13:13:01.404Z,9.00
2019-03-16T13:14:08.874Z,9.00
2019-03-16T13:15:18.655Z,9.00
2019-03-16T13:16:26.609Z,9.10
2019-03-16T13:18:02.258Z,9.00
2019-03-16T13:18:52.837Z,9.00
2019-03-16T13:20:05.458Z,9.00
2019-03-16T13:21:22.386Z,9.00
2019-03-16T13:22:41.789Z,8.90
2019-03-16T13:23:36.471Z,8.90
2019-03-16T13:24:49.445Z,8.90
2019-03-16T13:26:00.600Z,8.90
2019-03-16T13:27:13.489Z,8.90
2019-03-16T13:28:36.512Z,8.90
2019-03-16T13:29:38.509Z,8.90
2019-03-16T13:30:57.528Z,8.90
2019-03-16T13:31:58.575Z,8.90
2019-03-16T13:33:17.109Z,8.90
2019-03-16T13:34:26.847Z,8.90
2019-03-16T13:35:29.543Z,8.90
2019-03-16T13:36:38.646Z,8.90
2019-03-16T13:37:53.825Z,8.90
2019-03-16T13:39:08.178Z,8.90
2019-03-16T13:40:22.444Z,8.90
2019-03-16T13:41:35.471Z,8.90
2019-03-16T13:42:36.520Z,9.00
2019-03-16T13:45:09.005Z,9.00
2019-03-16T13:46:25.321Z,9.00
2019-03-16T13:47:53.212Z,9.00
2019-03-16T13:48:39.636Z,9.10
2019-03-16T13:49:51.914Z,9.10
2019-03-16T13:51:00.880Z,9.20
2019-03-16T13:52:25.355Z,9.20
2019-03-16T13:53:37.641Z,9.20
2019-03-16T13:54:46.252Z,9.30
2019-03-16T13:55:38.683Z,9.30
2019-03-16T13:57:51.187Z,9.30
2019-03-16T13:58:02.149Z,9.40
2019-03-16T13:59:23.746Z,9.40
2019-03-16T14:00:53.450Z,9.40
2019-03-16T14:01:45.705Z,9.50
2019-03-16T14:02:52.863Z,9.60
2019-03-16T14:04:03.713Z,9.60
2019-03-16T14:05:10.369Z,9.60
2019-03-16T14:06:24.835Z,9.70
2019-03-16T14:08:38.588Z,9.70
2019-03-16T14:08:47.788Z,9.70
2019-03-16T14:10:29.081Z,9.80
2019-03-16T14:11:09.297Z,9.80
2019-03-16T14:12:17.286Z,9.90
2019-03-16T14:14:52.100Z,9.90
2019-03-16T14:16:10.264Z,10.00
2019-03-16T14:17:20.936Z,10.00
2019-03-16T14:18:44.685Z,9.90
2019-03-16T14:19:54.146Z,10.00
2019-03-16T14:21:05.158Z,9.90
2019-03-16T14:22:09.498Z,9.90
2019-03-16T14:23:22.741Z,10.00
2019-03-16T14:24:23.297Z,10.00
2019-03-16T14:25:32.588Z,10.00
2019-03-16T14:26:38.516Z,9.90
2019-03-16T14:30:41.383Z,10.00
2019-03-16T14:32:04.609Z,9.90
2019-03-16T14:33:50.975Z,9.90
2019-03-16T14:34:10.947Z,9.90
2019-03-16T14:35:21.806Z,9.80
2019-03-16T14:36:32.668Z,9.80
2019-03-16T14:37:36.008Z,9.70
2019-03-16T14:38:43.274Z,9.70
2019-03-16T14:39:49.807Z,9.60
2019-03-16T14:40:54.223Z,9.50
2019-03-16T14:41:58.544Z,9.50
2019-03-16T14:43:05.970Z,9.40
2019-03-16T14:44:14.107Z,9.30
2019-03-16T14:45:19.348Z,9.30
2019-03-16T14:46:25.214Z,9.20
2019-03-16T14:47:29.622Z,9.20
2019-03-16T14:48:34.937Z,9.10
2019-03-16T14:49:56.775Z,9.10
2019-03-16T14:51:03.047Z,9.00
2019-03-16T14:52:09.154Z,9.00
2019-03-16T14:53:13.568Z,8.90
2019-03-16T14:54:20.056Z,8.90
2019-03-16T14:55:34.849Z,8.90
2019-03-16T14:56:38.976Z,8.80
2019-03-16T14:57:46.094Z,8.80
2019-03-16T15:00:16.822Z,8.80
2019-03-16T15:01:23.282Z,8.80
2019-03-16T15:03:01.693Z,8.80
2019-03-16T15:03:39.874Z,8.80
2019-03-16T15:05:04.572Z,8.80
2019-03-16T15:06:26.427Z,8.80
2019-03-16T15:09:19.049Z,8.90
2019-03-16T15:10:41.129Z,8.90
2019-03-16T15:11:37.236Z,8.90
2019-03-16T15:12:48.144Z,9.00
2019-03-16T15:15:50.187Z,9.00
2019-03-16T15:16:50.811Z,9.00
2019-03-16T15:17:55.237Z,9.00
2019-03-16T15:19:02.596Z,9.00
2019-03-16T15:20:10.985Z,9.00
2019-03-16T15:21:21.680Z,9.00
2019-03-16T15:22:37.852Z,8.90
2019-03-16T15:23:30.020Z,8.90
2019-03-16T15:25:42.574Z,8.90
2019-03-16T15:26:58.609Z,8.90
2019-03-16T15:27:56.889Z,8.90
2019-03-16T15:29:06.686Z,8.80
2019-03-16T15:30:30.293Z,8.80
2019-03-16T15:31:37.605Z,8.80
2019-03-16T15:33:05.917Z,8.70
2019-03-16T15:33:59.974Z,8.70
2019-03-16T15:35:05.872Z,8.60
2019-03-16T15:36:13.506Z,8.50
2019-03-16T15:37:17.788Z,8.50
2019-03-16T15:38:24.670Z,8.40